sensor_id;sensor_type;location;lat;lon;timestamp;pressure;altitude;pressure_sealevel;temperature;humidity
49723;BME280;43484;43.608;1.458;2023-03-25T00:01:06;100348.00;;;11.24;100.00
49723;BME280;43484;43.608;1.458;2023-03-25T00:03:35;100342.91;;;11.25;100.00
49723;BME280;43484;43.608;1.458;2023-03-25T00:06:08;100348.09;;;11.27;100.00
49723;BME280;43484;43.608;1.458;2023-03-25T00:08:37;100343.66;;;11.21;100.00
49723;BME280;43484;43.608;1.458;2023-03-25T00:11:05;100341.94;;;11.22;100.00
49723;BME280;43484;43.608;1.458;2023-03-25T00:13:32;100343.59;;;11.20;100.00
49723;BME280;43484;43.608;1.458;2023-03-25T00:16:00;100350.41;;;11.19;100.00
49723;BME280;43484;43.608;1.458;2023-03-25T00:18:29;100352.69;;;11.12;100.00
49723;BME280;43484;43.608;1.458;2023-03-25T00:21:00;100349.47;;;11.17;100.00
49723;BME280;43484;43.608;1.458;2023-03-25T00:23:29;100354.63;;;11.17;100.00
49723;BME280;43484;43.608;1.458;2023-03-25T00:25:56;100364.00;;;11.17;100.00
49723;BME280;43484;43.608;1.458;2023-03-25T00:28:27;100366.34;;;11.11;100.00
49723;BME280;43484;43.608;1.458;2023-03-25T00:31:00;100367.38;;;11.16;100.00
49723;BME280;43484;43.608;1.458;2023-03-25T00:33:28;100364.13;;;11.20;100.00
49723;BME280;43484;43.608;1.458;2023-03-25T00:35:55;100371.03;;;11.22;100.00
49723;BME280;43484;43.608;1.458;2023-03-25T00:38:29;100373.44;;;11.18;100.00
49723;BME280;43484;43.608;1.458;2023-03-25T00:41:14;100374.16;;;11.14;100.00
49723;BME280;43484;43.608;1.458;2023-03-25T00:43:49;100366.19;;;11.06;100.00
49723;BME280;43484;43.608;1.458;2023-03-25T00:46:16;100382.72;;;11.14;100.00
49723;BME280;43484;43.608;1.458;2023-03-25T00:48:43;100389.28;;;11.06;100.00
49723;BME280;43484;43.608;1.458;2023-03-25T00:51:11;100390.41;;;11.14;100.00
49723;BME280;43484;43.608;1.458;2023-03-25T00:53:39;100397.50;;;11.21;100.00
49723;BME280;43484;43.608;1.458;2023-03-25T00:56:06;100400.19;;;11.24;100.00
49723;BME280;43484;43.608;1.458;2023-03-25T00:58:33;100395.63;;;11.17;100.00
49723;BME280;43484;43.608;1.458;2023-03-25T01:00:59;100394.00;;;11.19;100.00
49723;BME280;43484;43.608;1.458;2023-03-25T01:03:26;100398.09;;;11.14;100.00
49723;BME280;43484;43.608;1.458;2023-03-25T01:05:56;100407.56;;;11.17;100.00
49723;BME280;43484;43.608;1.458;2023-03-25T01:08:23;100401.84;;;11.24;100.00
49723;BME280;43484;43.608;1.458;2023-03-25T01:10:52;100400.38;;;11.30;100.00
49723;BME280;43484;43.608;1.458;2023-03-25T01:13:20;100407.16;;;11.28;100.00
49723;BME280;43484;43.608;1.458;2023-03-25T01:15:47;100413.69;;;11.20;100.00
49723;BME280;43484;43.608;1.458;2023-03-25T01:18:15;100405.31;;;11.24;100.00
49723;BME280;43484;43.608;1.458;2023-03-25T01:20:42;100400.38;;;11.30;100.00
49723;BME280;43484;43.608;1.458;2023-03-25T01:23:09;100388.28;;;11.26;100.00
49723;BME280;43484;43.608;1.458;2023-03-25T01:25:36;100386.53;;;11.25;100.00
49723;BME280;43484;43.608;1.458;2023-03-25T01:28:03;100386.75;;;11.31;100.00
49723;BME280;43484;43.608;1.458;2023-03-25T01:30:30;100380.09;;;11.36;100.00
49723;BME280;43484;43.608;1.458;2023-03-25T01:32:57;100383.34;;;11.32;100.00
49723;BME280;43484;43.608;1.458;2023-03-25T01:35:23;100384.09;;;11.28;100.00
49723;BME280;43484;43.608;1.458;2023-03-25T01:37:50;100381.19;;;11.43;100.00
49723;BME280;43484;43.608;1.458;2023-03-25T01:40:21;100372.66;;;11.44;100.00
49723;BME280;43484;43.608;1.458;2023-03-25T01:42:49;100376.94;;;11.44;100.00
49723;BME280;43484;43.608;1.458;2023-03-25T01:45:20;100377.47;;;11.35;100.00
49723;BME280;43484;43.608;1.458;2023-03-25T01:47:51;100365.50;;;11.35;100.00
49723;BME280;43484;43.608;1.458;2023-03-25T01:50:20;100363.88;;;11.37;100.00
49723;BME280;43484;43.608;1.458;2023-03-25T01:52:49;100369.94;;;11.39;100.00
49723;BME280;43484;43.608;1.458;2023-03-25T01:55:17;100364.84;;;11.41;100.00
49723;BME280;43484;43.608;1.458;2023-03-25T01:57:46;100358.88;;;11.42;100.00
49723;BME280;43484;43.608;1.458;2023-03-25T02:00:14;100361.53;;;11.44;100.00
49723;BME280;43484;43.608;1.458;2023-03-25T02:02:42;100364.84;;;11.41;100.00
49723;BME280;43484;43.608;1.458;2023-03-25T02:08:17;100367.41;;;11.41;100.00
49723;BME280;43484;43.608;1.458;2023-03-25T02:10:46;100356.41;;;11.44;100.00
49723;BME280;43484;43.608;1.458;2023-03-25T02:13:13;100356.31;;;11.42;100.00
49723;BME280;43484;43.608;1.458;2023-03-25T02:18:52;100367.78;;;11.26;100.00
49723;BME280;43484;43.608;1.458;2023-03-25T02:27:23;100364.91;;;11.19;100.00
49723;BME280;43484;43.608;1.458;2023-03-25T02:33:18;100360.56;;;11.16;100.00
49723;BME280;43484;43.608;1.458;2023-03-25T02:38:59;100343.41;;;11.15;100.00
49723;BME280;43484;43.608;1.458;2023-03-25T02:44:12;100344.47;;;10.97;100.00
49723;BME280;43484;43.608;1.458;2023-03-25T02:46:45;100340.16;;;10.96;100.00
49723;BME280;43484;43.608;1.458;2023-03-25T02:49:38;100336.72;;;10.95;100.00
49723;BME280;43484;43.608;1.458;2023-03-25T02:52:16;100340.81;;;10.90;100.00
49723;BME280;43484;43.608;1.458;2023-03-25T02:54:47;100331.78;;;11.00;100.00
49723;BME280;43484;43.608;1.458;2023-03-25T02:57:18;100328.00;;;10.90;100.00
49723;BME280;43484;43.608;1.458;2023-03-25T02:59:49;100326.13;;;10.85;100.00
49723;BME280;43484;43.608;1.458;2023-03-25T03:02:21;100330.94;;;10.77;100.00
49723;BME280;43484;43.608;1.458;2023-03-25T03:04:53;100325.91;;;10.80;100.00
49723;BME280;43484;43.608;1.458;2023-03-25T03:07:24;100323.16;;;10.74;100.00
49723;BME280;43484;43.608;1.458;2023-03-25T03:17:43;100334.38;;;10.78;100.00
49723;BME280;43484;43.608;1.458;2023-03-25T03:20:57;100332.88;;;10.83;100.00
49723;BME280;43484;43.608;1.458;2023-03-25T03:26:40;100342.22;;;10.82;100.00
49723;BME280;43484;43.608;1.458;2023-03-25T03:32:21;100354.25;;;10.83;100.00
49723;BME280;43484;43.608;1.458;2023-03-25T03:34:54;100357.72;;;10.85;100.00
49723;BME280;43484;43.608;1.458;2023-03-25T03:37:27;100347.47;;;10.85;100.00
49723;BME280;43484;43.608;1.458;2023-03-25T03:39:57;100350.97;;;10.87;100.00
49723;BME280;43484;43.608;1.458;2023-03-25T03:42:59;100343.28;;;10.87;100.00
49723;BME280;43484;43.608;1.458;2023-03-25T03:45:31;100358.59;;;10.86;100.00
49723;BME280;43484;43.608;1.458;2023-03-25T03:48:04;100370.22;;;10.76;100.00
49723;BME280;43484;43.608;1.458;2023-03-25T03:50:41;100371.88;;;10.76;100.00
49723;BME280;43484;43.608;1.458;2023-03-25T03:55:46;100371.88;;;10.76;100.00
49723;BME280;43484;43.608;1.458;2023-03-25T03:58:25;100351.28;;;10.73;100.00
49723;BME280;43484;43.608;1.458;2023-03-25T04:01:21;100356.56;;;10.77;100.00
49723;BME280;43484;43.608;1.458;2023-03-25T04:04:01;100363.50;;;10.80;100.00
49723;BME280;43484;43.608;1.458;2023-03-25T04:06:33;100353.94;;;10.76;100.00
49723;BME280;43484;43.608;1.458;2023-03-25T04:09:23;100351.78;;;10.86;100.00
49723;BME280;43484;43.608;1.458;2023-03-25T04:12:07;100353.25;;;10.80;100.00
49723;BME280;43484;43.608;1.458;2023-03-25T04:14:36;100346.41;;;10.80;100.00
49723;BME280;43484;43.608;1.458;2023-03-25T04:17:05;100345.84;;;10.87;100.00
49723;BME280;43484;43.608;1.458;2023-03-25T04:19:31;100354.00;;;10.77;100.00
49723;BME280;43484;43.608;1.458;2023-03-25T04:22:00;100359.13;;;10.77;100.00
49723;BME280;43484;43.608;1.458;2023-03-25T04:24:28;100361.59;;;10.74;100.00
49723;BME280;43484;43.608;1.458;2023-03-25T04:26:58;100351.28;;;10.73;100.00
49723;BME280;43484;43.608;1.458;2023-03-25T04:29:29;100354.94;;;10.79;100.00
49723;BME280;43484;43.608;1.458;2023-03-25T04:31:57;100361.22;;;10.87;100.00
49723;BME280;43484;43.608;1.458;2023-03-25T04:34:24;100363.72;;;10.86;100.00
49723;BME280;43484;43.608;1.458;2023-03-25T04:36:53;100365.19;;;10.79;100.00
49723;BME280;43484;43.608;1.458;2023-03-25T04:39:23;100360.13;;;10.81;100.00
49723;BME280;43484;43.608;1.458;2023-03-25T04:41:51;100365.94;;;10.77;100.00
49723;BME280;43484;43.608;1.458;2023-03-25T04:44:29;100366.03;;;10.78;100.00
49723;BME280;43484;43.608;1.458;2023-03-25T04:47:00;100362.78;;;10.84;100.00
49723;BME280;43484;43.608;1.458;2023-03-25T04:49:27;100364.59;;;10.86;100.00
49723;BME280;43484;43.608;1.458;2023-03-25T04:51:55;100368.91;;;10.87;100.00
49723;BME280;43484;43.608;1.458;2023-03-25T04:54:23;100382.31;;;10.80;100.00
49723;BME280;43484;43.608;1.458;2023-03-25T04:56:50;100388.03;;;10.73;100.00
49723;BME280;43484;43.608;1.458;2023-03-25T04:59:18;100382.91;;;10.73;100.00
49723;BME280;43484;43.608;1.458;2023-03-25T05:01:46;100386.38;;;10.75;100.00
49723;BME280;43484;43.608;1.458;2023-03-25T05:04:15;100381.41;;;10.78;100.00
49723;BME280;43484;43.608;1.458;2023-03-25T05:06:45;100380.47;;;10.76;100.00
49723;BME280;43484;43.608;1.458;2023-03-25T05:09:15;100378.00;;;10.79;100.00
49723;BME280;43484;43.608;1.458;2023-03-25T05:11:42;100379.50;;;10.96;100.00
49723;BME280;43484;43.608;1.458;2023-03-25T05:14:09;100368.84;;;10.86;100.00
49723;BME280;43484;43.608;1.458;2023-03-25T05:16:37;100370.41;;;10.82;100.00
49723;BME280;43484;43.608;1.458;2023-03-25T05:19:05;100379.97;;;10.86;100.00
49723;BME280;43484;43.608;1.458;2023-03-25T05:21:36;100379.56;;;10.76;100.00
49723;BME280;43484;43.608;1.458;2023-03-25T05:24:04;100381.09;;;10.71;100.00
49723;BME280;43484;43.608;1.458;2023-03-25T05:26:34;100378.47;;;10.69;100.00
49723;BME280;43484;43.608;1.458;2023-03-25T05:29:09;100389.41;;;10.65;100.00
49723;BME280;43484;43.608;1.458;2023-03-25T05:31:36;100388.50;;;10.63;100.00
49723;BME280;43484;43.608;1.458;2023-03-25T05:34:02;100405.63;;;10.64;100.00
49723;BME280;43484;43.608;1.458;2023-03-25T05:36:32;100408.22;;;10.66;100.00
49723;BME280;43484;43.608;1.458;2023-03-25T05:39:00;100404.78;;;10.65;100.00
49723;BME280;43484;43.608;1.458;2023-03-25T05:41:27;100403.06;;;10.64;100.00
49723;BME280;43484;43.608;1.458;2023-03-25T05:44:05;100406.31;;;10.60;100.00
49723;BME280;43484;43.608;1.458;2023-03-25T05:46:33;100409.69;;;10.59;100.00
49723;BME280;43484;43.608;1.458;2023-03-25T05:49:00;100414.00;;;10.60;100.00
49723;BME280;43484;43.608;1.458;2023-03-25T05:51:29;100408.91;;;10.62;100.00
49723;BME280;43484;43.608;1.458;2023-03-25T05:54:00;100414.81;;;10.59;100.00
49723;BME280;43484;43.608;1.458;2023-03-25T05:56:27;100411.44;;;10.60;100.00
49723;BME280;43484;43.608;1.458;2023-03-25T05:58:55;100418.31;;;10.61;100.00
49723;BME280;43484;43.608;1.458;2023-03-25T06:01:23;100421.69;;;10.60;100.00
49723;BME280;43484;43.608;1.458;2023-03-25T06:04:00;100426.16;;;10.66;100.00
49723;BME280;43484;43.608;1.458;2023-03-25T06:06:29;100424.53;;;10.68;100.00
49723;BME280;43484;43.608;1.458;2023-03-25T06:08:58;100426.16;;;10.66;100.00
49723;BME280;43484;43.608;1.458;2023-03-25T06:11:24;100429.34;;;10.60;100.00
49723;BME280;43484;43.608;1.458;2023-03-25T06:13:51;100428.69;;;10.64;100.00
49723;BME280;43484;43.608;1.458;2023-03-25T06:16:20;100433.03;;;10.67;100.00
49723;BME280;43484;43.608;1.458;2023-03-25T06:18:49;100443.53;;;10.73;100.00
49723;BME280;43484;43.608;1.458;2023-03-25T06:21:17;100445.38;;;10.77;100.00
49723;BME280;43484;43.608;1.458;2023-03-25T06:23:45;100443.69;;;10.77;100.00
49723;BME280;43484;43.608;1.458;2023-03-25T06:26:17;100444.63;;;10.79;100.00
49723;BME280;43484;43.608;1.458;2023-03-25T06:28:44;100442.13;;;10.81;100.00
49723;BME280;43484;43.608;1.458;2023-03-25T06:31:15;100436.38;;;10.86;100.00
49723;BME280;43484;43.608;1.458;2023-03-25T06:33:43;100441.28;;;10.82;100.00
49723;BME280;43484;43.608;1.458;2023-03-25T06:36:12;100449.34;;;10.69;100.00
49723;BME280;43484;43.608;1.458;2023-03-25T06:38:40;100448.72;;;10.74;100.00
49723;BME280;43484;43.608;1.458;2023-03-25T06:41:07;100454.88;;;10.79;100.00
49723;BME280;43484;43.608;1.458;2023-03-25T06:43:34;100460.22;;;10.85;100.00
49723;BME280;43484;43.608;1.458;2023-03-25T06:46:01;100465.34;;;10.85;100.00
49723;BME280;43484;43.608;1.458;2023-03-25T06:48:28;100467.19;;;10.88;100.00
49723;BME280;43484;43.608;1.458;2023-03-25T06:50:55;100471.09;;;10.78;100.00
49723;BME280;43484;43.608;1.458;2023-03-25T06:53:22;100469.75;;;10.88;100.00
49723;BME280;43484;43.608;1.458;2023-03-25T06:55:49;100464.19;;;10.99;100.00
49723;BME280;43484;43.608;1.458;2023-03-25T06:58:16;100463.63;;;11.06;100.00
49723;BME280;43484;43.608;1.458;2023-03-25T07:00:43;100457.66;;;11.07;100.00
49723;BME280;43484;43.608;1.458;2023-03-25T07:03:11;100457.91;;;11.13;100.00
49723;BME280;43484;43.608;1.458;2023-03-25T07:05:40;100453.16;;;11.24;100.00
49723;BME280;43484;43.608;1.458;2023-03-25T07:08:07;100452.59;;;11.32;100.00
49723;BME280;43484;43.608;1.458;2023-03-25T07:10:34;100450.03;;;11.32;100.00
49723;BME280;43484;43.608;1.458;2023-03-25T07:13:00;100455.19;;;11.32;100.00
49723;BME280;43484;43.608;1.458;2023-03-25T07:15:27;100462.72;;;11.28;100.00
49723;BME280;43484;43.608;1.458;2023-03-25T07:17:53;100454.13;;;11.27;100.00
49723;BME280;43484;43.608;1.458;2023-03-25T07:20:21;100461.63;;;11.21;100.00
49723;BME280;43484;43.608;1.458;2023-03-25T07:22:47;100464.06;;;11.18;100.00
49723;BME280;43484;43.608;1.458;2023-03-25T07:25:14;100458.28;;;11.24;100.00
49723;BME280;43484;43.608;1.458;2023-03-25T07:27:41;100458.63;;;11.33;100.00
49723;BME280;43484;43.608;1.458;2023-03-25T07:30:08;100470.06;;;11.43;100.00
49723;BME280;43484;43.608;1.458;2023-03-25T07:32:35;100460.94;;;11.51;100.00
49723;BME280;43484;43.608;1.458;2023-03-25T07:35:01;100468.22;;;11.62;100.00
49723;BME280;43484;43.608;1.458;2023-03-25T07:37:29;100467.59;;;11.68;100.00
49723;BME280;43484;43.608;1.458;2023-03-25T07:39:55;100468.53;;;11.70;100.00
49723;BME280;43484;43.608;1.458;2023-03-25T07:42:22;100465.19;;;11.72;100.00
49723;BME280;43484;43.608;1.458;2023-03-25T07:44:48;100465.50;;;11.81;100.00
49723;BME280;43484;43.608;1.458;2023-03-25T07:47:15;100461.03;;;11.76;100.00
49723;BME280;43484;43.608;1.458;2023-03-25T07:49:42;100464.66;;;11.82;100.00
49723;BME280;43484;43.608;1.458;2023-03-25T07:52:10;100458.00;;;11.87;100.00
49723;BME280;43484;43.608;1.458;2023-03-25T07:54:36;100469.94;;;11.85;100.00
49723;BME280;43484;43.608;1.458;2023-03-25T07:57:03;100464.84;;;11.87;100.00
49723;BME280;43484;43.608;1.458;2023-03-25T07:59:30;100462.81;;;12.02;100.00
49723;BME280;43484;43.608;1.458;2023-03-25T08:01:56;100456.06;;;12.05;100.00
49723;BME280;43484;43.608;1.458;2023-03-25T08:04:23;100450.16;;;12.08;100.00
49723;BME280;43484;43.608;1.458;2023-03-25T08:06:50;100437.53;;;12.14;100.00
49723;BME280;43484;43.608;1.458;2023-03-25T08:09:16;100437.13;;;12.02;100.00
49723;BME280;43484;43.608;1.458;2023-03-25T08:11:43;100444.91;;;12.05;100.00
49723;BME280;43484;43.608;1.458;2023-03-25T08:14:09;100455.16;;;12.03;100.00
49723;BME280;43484;43.608;1.458;2023-03-25T08:16:36;100461.97;;;12.03;100.00
49723;BME280;43484;43.608;1.458;2023-03-25T08:19:03;100451.59;;;12.00;100.00
49723;BME280;43484;43.608;1.458;2023-03-25T08:21:29;100453.34;;;12.01;100.00
49723;BME280;43484;43.608;1.458;2023-03-25T08:23:56;100455.09;;;12.02;100.00
49723;BME280;43484;43.608;1.458;2023-03-25T08:26:31;100457.91;;;12.09;100.00
49723;BME280;43484;43.608;1.458;2023-03-25T08:29:00;100453.97;;;12.19;100.00
49723;BME280;43484;43.608;1.458;2023-03-25T08:31:30;100456.06;;;12.30;100.00
49723;BME280;43484;43.608;1.458;2023-03-25T08:33:58;100457.38;;;12.46;100.00
49723;BME280;43484;43.608;1.458;2023-03-25T08:36:24;100455.00;;;12.50;100.00
49723;BME280;43484;43.608;1.458;2023-03-25T08:38:51;100445.47;;;12.48;100.00
49723;BME280;43484;43.608;1.458;2023-03-25T08:41:18;100449.59;;;12.43;100.00
49723;BME280;43484;43.608;1.458;2023-03-25T08:43:45;100438.97;;;12.59;100.00
49723;BME280;43484;43.608;1.458;2023-03-25T08:46:13;100446.91;;;12.67;100.00
49723;BME280;43484;43.608;1.458;2023-03-25T08:48:39;100441.19;;;12.75;100.00
49723;BME280;43484;43.608;1.458;2023-03-25T08:51:06;100437.00;;;12.79;100.00
49723;BME280;43484;43.608;1.458;2023-03-25T08:53:33;100436.38;;;12.86;100.00
49723;BME280;43484;43.608;1.458;2023-03-25T08:55:59;100436.56;;;12.93;100.00
49723;BME280;43484;43.608;1.458;2023-03-25T08:58:26;100440.97;;;12.96;100.00
49723;BME280;43484;43.608;1.458;2023-03-25T09:00:54;100441.25;;;13.05;100.00
49723;BME280;43484;43.608;1.458;2023-03-25T09:03:22;100438.22;;;13.18;100.00
49723;BME280;43484;43.608;1.458;2023-03-25T09:05:49;100439.47;;;13.32;100.00
49723;BME280;43484;43.608;1.458;2023-03-25T09:08:16;100437.38;;;13.50;100.00
49723;BME280;43484;43.608;1.458;2023-03-25T09:10:43;100429.91;;;13.59;100.00
49723;BME280;43484;43.608;1.458;2023-03-25T09:13:10;100436.00;;;13.61;100.00
49723;BME280;43484;43.608;1.458;2023-03-25T09:15:36;100441.16;;;13.62;100.00
49723;BME280;43484;43.608;1.458;2023-03-25T09:18:03;100447.78;;;13.53;100.00
49723;BME280;43484;43.608;1.458;2023-03-25T09:20:32;100439.81;;;13.76;100.00
49723;BME280;43484;43.608;1.458;2023-03-25T09:22:58;100443.56;;;13.88;100.00
49723;BME280;43484;43.608;1.458;2023-03-25T09:25:25;100424.97;;;13.66;100.00
49723;BME280;43484;43.608;1.458;2023-03-25T09:27:52;100415.03;;;13.80;100.00
49723;BME280;43484;43.608;1.458;2023-03-25T09:30:18;100412.59;;;13.84;100.00
49723;BME280;43484;43.608;1.458;2023-03-25T09:32:45;100415.78;;;13.76;100.00
49723;BME280;43484;43.608;1.458;2023-03-25T09:35:12;100426.84;;;13.72;100.00
49723;BME280;43484;43.608;1.458;2023-03-25T09:37:39;100420.31;;;13.84;100.00
49723;BME280;43484;43.608;1.458;2023-03-25T09:40:06;100410.84;;;13.85;100.00
49723;BME280;43484;43.608;1.458;2023-03-25T09:42:59;100411.78;;;13.87;100.00
49723;BME280;43484;43.608;1.458;2023-03-25T09:45:30;100395.44;;;13.86;100.00
49723;BME280;43484;43.608;1.458;2023-03-25T09:51:02;100401.38;;;13.82;100.00
49723;BME280;43484;43.608;1.458;2023-03-25T09:53:36;100379.34;;;13.95;100.00
49723;BME280;43484;43.608;1.458;2023-03-25T09:56:19;100389.56;;;13.92;100.00
49723;BME280;43484;43.608;1.458;2023-03-25T09:58:48;100380.44;;;14.03;100.00
49723;BME280;43484;43.608;1.458;2023-03-25T10:14:20;100385.44;;;13.99;100.00
49723;BME280;43484;43.608;1.458;2023-03-25T10:17:19;100381.88;;;14.26;100.00
49723;BME280;43484;43.608;1.458;2023-03-25T10:25:46;100375.34;;;14.06;100.00
49723;BME280;43484;43.608;1.458;2023-03-25T10:28:19;100360.78;;;14.08;100.00
49723;BME280;43484;43.608;1.458;2023-03-25T10:30:51;100356.56;;;14.12;100.00
49723;BME280;43484;43.608;1.458;2023-03-25T10:35:58;100357.91;;;14.32;100.00
49723;BME280;43484;43.608;1.458;2023-03-25T10:38:27;100356.09;;;14.26;100.00
49723;BME280;43484;43.608;1.458;2023-03-25T10:41:30;100357.50;;;14.15;100.00
49723;BME280;43484;43.608;1.458;2023-03-25T10:44:01;100352.63;;;14.26;100.00
49723;BME280;43484;43.608;1.458;2023-03-25T10:46:33;100349.41;;;14.34;100.00
49723;BME280;43484;43.608;1.458;2023-03-25T10:49:02;100350.78;;;14.57;100.00
49723;BME280;43484;43.608;1.458;2023-03-25T10:51:31;100333.38;;;14.49;100.00
49723;BME280;43484;43.608;1.458;2023-03-25T10:53:59;100351.50;;;14.52;100.00
49723;BME280;43484;43.608;1.458;2023-03-25T10:56:34;100353.97;;;14.47;100.00
49723;BME280;43484;43.608;1.458;2023-03-25T10:59:10;100351.59;;;14.55;100.00
49723;BME280;43484;43.608;1.458;2023-03-25T11:01:39;100343.84;;;14.55;100.00
49723;BME280;43484;43.608;1.458;2023-03-25T11:04:09;100343.84;;;14.95;100.00
49723;BME280;43484;43.608;1.458;2023-03-25T11:06:39;100342.97;;;14.94;100.00
49723;BME280;43484;43.608;1.458;2023-03-25T11:09:23;100343.94;;;15.01;100.00
49723;BME280;43484;43.608;1.458;2023-03-25T11:11:51;100343.94;;;15.01;100.00
49723;BME280;43484;43.608;1.458;2023-03-25T11:14:23;100334.88;;;14.78;100.00
49723;BME280;43484;43.608;1.458;2023-03-25T11:19:26;100322.69;;;14.71;100.00
49723;BME280;43484;43.608;1.458;2023-03-25T11:21:57;100320.13;;;14.71;100.00
49723;BME280;43484;43.608;1.458;2023-03-25T11:24:30;100323.25;;;14.98;100.00
49723;BME280;43484;43.608;1.458;2023-03-25T11:26:57;100319.44;;;15.24;100.00
49723;BME280;43484;43.608;1.458;2023-03-25T11:29:26;100309.09;;;15.23;100.00
49723;BME280;43484;43.608;1.458;2023-03-25T11:32:04;100296.13;;;15.20;100.00
49723;BME280;43484;43.608;1.458;2023-03-25T11:34:31;100298.78;;;15.24;100.00
49723;BME280;43484;43.608;1.458;2023-03-25T11:39:39;100272.91;;;15.20;100.00
49723;BME280;43484;43.608;1.458;2023-03-25T11:44:49;100258.59;;;15.38;100.00
49723;BME280;43484;43.608;1.458;2023-03-25T11:47:24;100257.00;;;15.43;100.00
49723;BME280;43484;43.608;1.458;2023-03-25T11:49:52;100255.28;;;15.42;100.00
49723;BME280;43484;43.608;1.458;2023-03-25T11:52:25;100252.50;;;15.33;100.00
49723;BME280;43484;43.608;1.458;2023-03-25T11:54:54;100253.19;;;15.23;100.00
49723;BME280;43484;43.608;1.458;2023-03-25T11:57:26;100244.97;;;15.42;100.00
49723;BME280;43484;43.608;1.458;2023-03-25T12:00:03;100241.72;;;15.55;100.00
49723;BME280;43484;43.608;1.458;2023-03-25T12:02:39;100246.06;;;15.59;100.00
49723;BME280;43484;43.608;1.458;2023-03-25T12:05:11;100240.88;;;15.56;100.00
49723;BME280;43484;43.608;1.458;2023-03-25T12:07:49;100229.53;;;15.47;100.00
49723;BME280;43484;43.608;1.458;2023-03-25T12:10:18;100223.59;;;15.52;100.00
49723;BME280;43484;43.608;1.458;2023-03-25T12:19:07;100220.41;;;15.70;100.00
49723;BME280;43484;43.608;1.458;2023-03-25T12:21:57;100209.53;;;15.90;100.00
49723;BME280;43484;43.608;1.458;2023-03-25T12:33:20;100192.34;;;15.92;100.00
49723;BME280;43484;43.608;1.458;2023-03-25T12:39:04;100180.91;;;15.77;100.00
49723;BME280;43484;43.608;1.458;2023-03-25T12:54:47;100144.31;;;16.09;100.00
49723;BME280;43484;43.608;1.458;2023-03-25T12:57:40;100136.69;;;16.20;100.00
49723;BME280;43484;43.608;1.458;2023-03-25T13:03:22;100121.31;;;16.32;100.00
49723;BME280;43484;43.608;1.458;2023-03-25T13:05:59;100121.53;;;16.49;100.00
49723;BME280;43484;43.608;1.458;2023-03-25T13:09:01;100111.28;;;16.59;100.00
49723;BME280;43484;43.608;1.458;2023-03-25T13:11:38;100098.19;;;16.44;100.00
49723;BME280;43484;43.608;1.458;2023-03-25T13:16:56;100086.81;;;16.28;100.00
49723;BME280;43484;43.608;1.458;2023-03-25T13:19:26;100080.78;;;16.31;100.00
49723;BME280;43484;43.608;1.458;2023-03-25T13:21:57;100086.19;;;16.48;100.00
49723;BME280;43484;43.608;1.458;2023-03-25T13:24:40;100083.81;;;16.73;100.00
49723;BME280;43484;43.608;1.458;2023-03-25T13:27:11;100078.63;;;16.72;100.00
49723;BME280;43484;43.608;1.458;2023-03-25T13:29:58;100071.47;;;16.45;100.00
49723;BME280;43484;43.608;1.458;2023-03-25T13:32:38;100064.47;;;16.38;100.00
49723;BME280;43484;43.608;1.458;2023-03-25T13:35:21;100055.94;;;16.44;100.00
49723;BME280;43484;43.608;1.458;2023-03-25T13:37:56;100059.50;;;16.56;100.00
49723;BME280;43484;43.608;1.458;2023-03-25T13:40:28;100065.41;;;16.45;100.00
49723;BME280;43484;43.608;1.458;2023-03-25T13:43:33;100063.88;;;16.59;100.00
49723;BME280;43484;43.608;1.458;2023-03-25T13:46:05;100059.72;;;16.77;100.00
49723;BME280;43484;43.608;1.458;2023-03-25T13:48:42;100065.09;;;17.03;100.00
49723;BME280;43484;43.608;1.458;2023-03-25T13:51:13;100054.88;;;17.27;100.00
49723;BME280;43484;43.608;1.458;2023-03-25T13:53:56;100048.81;;;17.26;100.00
49723;BME280;43484;43.608;1.458;2023-03-25T13:56:38;100059.97;;;17.15;100.00
49723;BME280;43484;43.608;1.458;2023-03-25T13:59:36;100057.34;;;17.09;100.00
49723;BME280;43484;43.608;1.458;2023-03-25T14:08:14;100048.81;;;17.20;100.00
49723;BME280;43484;43.608;1.458;2023-03-25T14:10:45;100049.75;;;17.33;100.00
49723;BME280;43484;43.608;1.458;2023-03-25T14:13:17;100042.16;;;17.63;100.00
49723;BME280;43484;43.608;1.458;2023-03-25T14:15:55;100027.34;;;17.44;100.00
49723;BME280;43484;43.608;1.458;2023-03-25T14:18:24;100023.00;;;17.40;100.00
49723;BME280;43484;43.608;1.458;2023-03-25T14:20:52;100019.63;;;17.50;100.00
49723;BME280;43484;43.608;1.458;2023-03-25T14:23:21;100014.28;;;17.20;100.00
49723;BME280;43484;43.608;1.458;2023-03-25T14:25:53;100022.16;;;17.39;100.00
49723;BME280;43484;43.608;1.458;2023-03-25T14:28:40;100019.44;;;17.17;100.00
49723;BME280;43484;43.608;1.458;2023-03-25T14:31:23;100019.41;;;17.11;100.00
49723;BME280;43484;43.608;1.458;2023-03-25T14:44:23;100008.97;;;16.96;100.00
49723;BME280;43484;43.608;1.458;2023-03-25T14:50:00;99999.66;;;17.29;100.00
49723;BME280;43484;43.608;1.458;2023-03-25T14:52:43;100006.56;;;17.26;100.00
49723;BME280;43484;43.608;1.458;2023-03-25T14:57:59;99981.41;;;17.04;100.00
49723;BME280;43484;43.608;1.458;2023-03-25T15:00:31;99976.28;;;17.14;100.00
49723;BME280;43484;43.608;1.458;2023-03-25T15:03:04;99971.13;;;17.22;100.00
49723;BME280;43484;43.608;1.458;2023-03-25T15:05:33;99968.63;;;17.41;100.00
49723;BME280;43484;43.608;1.458;2023-03-25T15:10:39;99952.28;;;17.47;100.00
49723;BME280;43484;43.608;1.458;2023-03-25T15:13:23;99949.66;;;17.42;99.23